createdAt,value
2023-04-02T00:01:38.797Z,-4.42
2023-04-02T00:04:28.210Z,-4.46
2023-04-02T00:07:30.744Z,-4.80
2023-04-02T00:09:59.016Z,-5.08
2023-04-02T00:12:26.971Z,-5.27
2023-04-02T00:14:58.144Z,-5.28
2023-04-02T00:17:28.096Z,-4.97
2023-04-02T00:20:01.550Z,-4.87
2023-04-02T00:22:35.902Z,-4.89
2023-04-02T00:25:15.118Z,-5.13
2023-04-02T00:27:44.010Z,-5.01
2023-04-02T00:30:15.011Z,-5.53
2023-04-02T00:32:43.622Z,-5.48
2023-04-02T00:35:16.126Z,-5.49
2023-04-02T00:37:47.258Z,-5.63
2023-04-02T00:40:21.156Z,-5.37
2023-04-02T00:42:52.044Z,-5.68
2023-04-02T00:45:27.632Z,-5.49
2023-04-02T00:48:02.061Z,-5.84
2023-04-02T00:50:36.015Z,-5.71
2023-04-02T00:53:13.927Z,-5.06
2023-04-02T00:55:44.895Z,-5.18
2023-04-02T00:58:20.343Z,-5.16
2023-04-02T01:00:52.477Z,-5.04
2023-04-02T01:03:38.133Z,-5.24
2023-04-02T01:06:13.183Z,-5.47
2023-04-02T01:08:54.089Z,-5.46
2023-04-02T01:11:39.538Z,-5.67
2023-04-02T01:14:18.945Z,-5.86
2023-04-02T01:16:55.959Z,-5.74
2023-04-02T01:19:50.459Z,-6.07
2023-04-02T01:22:32.581Z,-5.94
2023-04-02T01:25:06.501Z,-5.90
2023-04-02T01:27:43.531Z,-6.12
2023-04-02T01:30:21.182Z,-5.57
2023-04-02T01:32:50.765Z,-5.93
2023-04-02T01:35:22.784Z,-5.86
2023-04-02T01:37:59.114Z,-6.09
2023-04-02T01:40:37.082Z,-5.92
2023-04-02T01:43:18.606Z,-5.68
2023-04-02T01:45:51.158Z,-5.58
2023-04-02T01:48:23.970Z,-6.04
2023-04-02T01:50:56.527Z,-5.76
2023-04-02T01:53:28.588Z,-5.88
2023-04-02T01:56:00.446Z,-5.78
2023-04-02T01:58:33.376Z,-5.70
2023-04-02T02:01:07.285Z,-5.67
2023-04-02T02:03:38.487Z,-5.44
2023-04-02T02:06:12.436Z,-5.48
2023-04-02T02:08:46.119Z,-5.68
2023-04-02T02:11:19.016Z,-5.68
2023-04-02T02:13:53.907Z,-6.02
2023-04-02T02:16:28.252Z,-6.04
2023-04-02T02:18:59.834Z,-5.79
2023-04-02T02:21:38.534Z,-5.94
2023-04-02T02:24:16.942Z,-5.94
2023-04-02T02:26:48.709Z,-6.13
2023-04-02T02:29:22.200Z,-6.20
2023-04-02T02:31:56.639Z,-6.24
2023-04-02T02:34:32.579Z,-5.88
2023-04-02T02:37:05.973Z,-6.20
2023-04-02T02:39:39.176Z,-6.28
2023-04-02T02:42:15.063Z,-6.45
2023-04-02T02:44:47.695Z,-6.48
2023-04-02T02:47:23.214Z,-6.64
2023-04-02T02:50:00.381Z,-6.57
2023-04-02T02:52:33.719Z,-6.63
2023-04-02T02:55:07.042Z,-6.55
2023-04-02T02:57:41.597Z,-6.70
2023-04-02T03:00:13.134Z,-6.89
2023-04-02T03:02:45.729Z,-6.52
2023-04-02T03:05:21.030Z,-6.84
2023-04-02T03:07:53.357Z,-7.07
2023-04-02T03:10:28.439Z,-7.11
2023-04-02T03:13:04.302Z,-7.23
2023-04-02T03:15:38.614Z,-6.92
2023-04-02T03:18:15.840Z,-6.61
2023-04-02T03:20:49.192Z,-7.16
2023-04-02T03:23:24.898Z,-7.06
2023-04-02T03:26:02.163Z,-7.29
2023-04-02T03:28:35.633Z,-6.93
2023-04-02T03:31:09.403Z,-7.66
2023-04-02T03:33:44.397Z,-6.58
2023-04-02T03:36:22.410Z,-6.54
2023-04-02T03:38:57.224Z,-6.75
2023-04-02T03:41:33.118Z,-6.93
2023-04-02T03:44:08.649Z,-6.40
2023-04-02T03:46:43.650Z,-6.12
2023-04-02T03:49:25.229Z,-5.91
2023-04-02T03:52:00.606Z,-6.39
2023-04-02T03:54:31.339Z,-6.53
2023-04-02T03:56:59.665Z,-6.73
2023-04-02T03:59:39.985Z,-7.17
2023-04-02T04:02:20.662Z,-7.36
2023-04-02T04:04:55.187Z,-7.68
2023-04-02T04:07:31.753Z,-7.07
2023-04-02T04:10:06.092Z,-7.26
2023-04-02T04:12:36.956Z,-7.27
2023-04-02T04:15:15.335Z,-7.38
2023-04-02T04:17:54.094Z,-7.65
2023-04-02T04:20:32.414Z,-7.76
2023-04-02T04:23:10.693Z,-7.63
2023-04-02T04:25:43.274Z,-7.95
2023-04-02T04:28:20.638Z,-7.71
2023-04-02T04:30:56.108Z,-7.78
2023-04-02T04:33:26.771Z,-7.87
2023-04-02T04:36:02.685Z,-7.76
2023-04-02T04:38:34.374Z,-7.54
2023-04-02T04:41:13.637Z,-7.62
2023-04-02T04:43:46.731Z,-7.69
2023-04-02T04:46:24.169Z,-7.18
2023-04-02T04:48:56.842Z,-7.12
2023-04-02T04:51:35.271Z,-7.05
2023-04-02T04:54:03.104Z,-6.93
2023-04-02T04:56:33.969Z,-7.05
2023-04-02T04:59:08.253Z,-7.03
2023-04-02T05:01:44.879Z,-6.49
2023-04-02T05:04:25.404Z,-6.51
2023-04-02T05:07:01.820Z,-6.39
2023-04-02T05:09:36.077Z,-5.58
2023-04-02T05:12:11.845Z,-5.62
2023-04-02T05:14:46.676Z,-5.55
2023-04-02T05:17:22.909Z,-5.55
2023-04-02T05:19:58.856Z,-5.82
2023-04-02T05:22:36.874Z,-5.73
2023-04-02T05:25:22.341Z,-5.61
2023-04-02T05:28:00.038Z,-5.07
2023-04-02T05:30:51.198Z,-4.85
2023-04-02T05:33:24.966Z,-4.42
2023-04-02T05:36:01.773Z,-4.27
2023-04-02T05:38:35.932Z,-4.04
2023-04-02T05:41:08.521Z,-3.95
2023-04-02T05:43:47.475Z,-3.80
2023-04-02T05:46:18.719Z,-4.06
2023-04-02T05:48:55.896Z,-3.50
2023-04-02T05:51:34.406Z,-3.29
2023-04-02T05:54:07.803Z,-3.33
2023-04-02T05:56:44.186Z,-3.47
2023-04-02T05:59:19.973Z,-3.03
2023-04-02T06:01:54.289Z,-2.92
2023-04-02T06:04:29.869Z,-2.87
2023-04-02T06:07:07.829Z,-2.75
2023-04-02T06:09:43.593Z,-2.86
2023-04-02T06:12:26.536Z,-2.72
2023-04-02T06:14:54.869Z,-2.67
2023-04-02T06:17:23.456Z,-2.41
2023-04-02T06:19:55.777Z,-2.26
2023-04-02T06:22:28.140Z,-2.24
2023-04-02T06:25:04.564Z,-2.23
2023-04-02T06:27:36.552Z,-2.13
2023-04-02T06:30:10.251Z,-2.12
2023-04-02T06:32:38.116Z,-2.12
2023-04-02T06:35:15.408Z,-1.89
2023-04-02T06:37:46.682Z,-1.77
2023-04-02T06:40:33.081Z,-1.60
2023-04-02T06:43:03.940Z,-1.54
2023-04-02T06:45:37.827Z,-2.08
2023-04-02T06:48:06.353Z,-1.79
2023-04-02T06:50:44.281Z,-1.36
2023-04-02T06:53:22.060Z,-1.33
2023-04-02T06:56:01.637Z,-1.67
2023-04-02T06:58:29.421Z,-1.23
2023-04-02T07:00:57.830Z,-1.16
2023-04-02T07:03:28.352Z,-1.51
2023-04-02T07:05:56.094Z,-1.04
2023-04-02T07:08:26.264Z,-0.86
2023-04-02T07:10:56.318Z,-1.04
2023-04-02T07:13:27.291Z,-0.87
2023-04-02T07:15:57.356Z,-1.02
2023-04-02T07:18:29.316Z,-0.74
2023-04-02T07:21:01.391Z,-0.70
2023-04-02T07:23:29.103Z,-0.66
2023-04-02T07:25:58.594Z,-0.65
2023-04-02T07:28:32.317Z,-0.59
2023-04-02T07:31:00.258Z,-0.68
2023-04-02T07:33:32.051Z,-0.24
2023-04-02T07:36:00.061Z,-0.03
2023-04-02T07:38:27.884Z,-0.09
2023-04-02T07:40:55.626Z,0.15
2023-04-02T07:43:28.609Z,0.36
2023-04-02T07:45:56.378Z,0.38
2023-04-02T07:48:24.141Z,0.11
2023-04-02T07:50:54.072Z,0.26
2023-04-02T07:53:29.904Z,0.48
2023-04-02T07:55:58.694Z,0.73
2023-04-02T07:58:27.912Z,0.85
2023-04-02T08:00:55.703Z,1.22
2023-04-02T08:03:28.062Z,0.85
2023-04-02T08:05:57.902Z,0.77
2023-04-02T08:08:28.196Z,0.80
2023-04-02T08:10:57.991Z,0.86
2023-04-02T08:13:27.140Z,0.81
2023-04-02T08:16:10.909Z,1.00
2023-04-02T08:18:38.738Z,0.99
2023-04-02T08:21:08.715Z,1.01
2023-04-02T08:23:37.244Z,1.24
2023-04-02T08:26:05.915Z,1.09
2023-04-02T08:28:35.752Z,1.00
2023-04-02T08:31:04.902Z,1.16
2023-04-02T08:33:32.844Z,1.27
2023-04-02T08:36:00.948Z,1.05
2023-04-02T08:38:28.771Z,1.34
2023-04-02T08:41:00.839Z,1.33
2023-04-02T08:43:59.237Z,1.57
2023-04-02T08:46:31.809Z,1.70
2023-04-02T08:49:05.532Z,1.72
2023-04-02T08:51:37.078Z,1.71
2023-04-02T08:54:21.476Z,1.85
2023-04-02T08:56:56.396Z,1.60
2023-04-02T08:59:35.937Z,1.73
2023-04-02T09:02:13.674Z,1.91
2023-04-02T09:04:45.746Z,2.13
2023-04-02T09:07:16.581Z,2.19
2023-04-02T09:09:48.672Z,2.03
2023-04-02T09:12:21.006Z,2.31
2023-04-02T09:15:09.961Z,2.70
2023-04-02T09:17:46.753Z,2.64
2023-04-02T09:20:28.033Z,2.60
2023-04-02T09:22:57.327Z,2.70
2023-04-02T09:25:29.908Z,2.56
2023-04-02T09:28:01.688Z,2.95
2023-04-02T09:30:44.632Z,3.27
2023-04-02T09:33:12.972Z,3.23
2023-04-02T09:35:59.586Z,3.11
2023-04-02T09:38:31.680Z,3.33
2023-04-02T09:41:05.755Z,2.98
2023-04-02T09:43:35.938Z,2.95
2023-04-02T09:46:19.299Z,3.50
2023-04-02T09:48:54.172Z,3.48
2023-04-02T09:51:25.911Z,3.41
2023-04-02T09:54:10.036Z,3.37
2023-04-02T09:56:43.493Z,3.57
2023-04-02T09:59:16.962Z,3.95
2023-04-02T10:02:00.522Z,4.25
2023-04-02T10:04:36.895Z,4.13
2023-04-02T10:07:09.433Z,4.18
2023-04-02T10:09:38.987Z,3.93
2023-04-02T10:12:13.775Z,3.91
2023-04-02T10:14:45.933Z,4.14
2023-04-02T10:17:22.875Z,4.00
2023-04-02T10:19:54.567Z,4.16
2023-04-02T10:22:26.691Z,4.14
2023-04-02T10:24:54.410Z,4.41
2023-04-02T10:27:33.344Z,4.03
2023-04-02T10:30:15.934Z,3.98
2023-04-02T10:32:56.222Z,3.81
2023-04-02T10:35:36.953Z,3.77
2023-04-02T10:38:38.880Z,3.76
2023-04-02T10:41:18.035Z,3.73
2023-04-02T10:44:25.957Z,3.46
2023-04-02T10:47:05.108Z,3.82
2023-04-02T10:49:43.173Z,4.02
2023-04-02T10:52:17.809Z,4.15
2023-04-02T10:54:52.709Z,4.38
2023-04-02T10:57:30.084Z,4.32
2023-04-02T11:00:09.646Z,4.45
2023-04-02T11:02:44.820Z,4.45
2023-04-02T11:05:22.734Z,4.03
2023-04-02T11:07:57.865Z,4.07
2023-04-02T11:10:29.738Z,3.99
2023-04-02T11:13:04.822Z,3.81
2023-04-02T11:15:35.046Z,4.11
2023-04-02T11:18:05.223Z,4.63
2023-04-02T11:21:00.360Z,4.94
2023-04-02T11:23:32.818Z,4.98
2023-04-02T11:26:31.253Z,4.46
2023-04-02T11:29:16.750Z,4.63
2023-04-02T11:31:45.997Z,4.09
2023-04-02T11:34:37.856Z,4.14
2023-04-02T11:37:10.794Z,4.37
2023-04-02T11:39:53.625Z,4.52
2023-04-02T11:42:29.832Z,4.28
2023-04-02T11:45:02.037Z,4.35
2023-04-02T11:47:32.904Z,4.47
2023-04-02T11:50:07.152Z,4.13
2023-04-02T11:52:53.096Z,4.27
2023-04-02T11:55:30.659Z,3.71
2023-04-02T11:58:26.673Z,3.37
2023-04-02T12:01:22.400Z,3.62
2023-04-02T12:04:21.039Z,3.99
2023-04-02T12:06:59.928Z,4.16
2023-04-02T12:09:31.027Z,4.45
2023-04-02T12:12:01.396Z,4.24
2023-04-02T12:14:50.028Z,3.47
2023-04-02T12:17:25.130Z,3.85
2023-04-02T12:19:55.436Z,3.95
2023-04-02T12:22:27.194Z,4.26
2023-04-02T12:25:02.997Z,4.23
2023-04-02T12:27:31.111Z,3.91
2023-04-02T12:30:16.490Z,3.85
2023-04-02T12:32:44.246Z,3.66
2023-04-02T12:35:31.210Z,3.64
2023-04-02T12:37:59.182Z,3.92
2023-04-02T12:40:30.612Z,3.41
2023-04-02T12:43:00.380Z,3.75
2023-04-02T12:45:31.376Z,3.87
2023-04-02T12:48:03.537Z,4.11
2023-04-02T12:50:31.373Z,3.70
2023-04-02T12:53:00.937Z,3.86
2023-04-02T12:55:35.465Z,4.42
2023-04-02T12:58:03.157Z,3.70
2023-04-02T13:00:36.141Z,3.53
2023-04-02T13:03:22.571Z,4.09
2023-04-02T13:05:55.476Z,3.87
2023-04-02T13:08:29.058Z,3.57
2023-04-02T13:11:03.435Z,3.34
2023-04-02T13:13:37.817Z,4.20
2023-04-02T13:16:08.854Z,3.74
2023-04-02T13:18:38.566Z,3.58
2023-04-02T13:21:29.054Z,3.94
2023-04-02T13:23:56.950Z,3.21
2023-04-02T13:26:29.358Z,3.49
2023-04-02T13:29:03.730Z,3.52
2023-04-02T13:31:33.333Z,3.94
2023-04-02T13:34:01.188Z,3.44
2023-04-02T13:36:29.624Z,3.37
2023-04-02T13:38:59.567Z,3.21
2023-04-02T13:41:35.271Z,3.60
2023-04-02T13:44:06.759Z,3.63
2023-04-02T13:46:37.027Z,4.17
2023-04-02T13:49:04.727Z,3.85
2023-04-02T13:51:37.301Z,3.71
2023-04-02T13:54:12.338Z,3.98
2023-04-02T13:56:41.440Z,4.39
2023-04-02T13:59:11.558Z,3.23
2023-04-02T14:01:40.104Z,3.36
2023-04-02T14:04:08.932Z,2.95
2023-04-02T14:06:54.674Z,3.25
2023-04-02T14:09:30.824Z,3.35
2023-04-02T14:12:10.653Z,3.14
2023-04-02T14:14:57.016Z,3.01
2023-04-02T14:17:39.714Z,3.00
2023-04-02T14:20:23.033Z,3.31
2023-04-02T14:23:08.205Z,3.41
2023-04-02T14:25:44.181Z,3.57
2023-04-02T14:28:24.198Z,3.23
2023-04-02T14:31:00.542Z,3.16
2023-04-02T14:33:38.794Z,2.55
2023-04-02T14:36:16.663Z,2.20
2023-04-02T14:38:57.908Z,3.13
2023-04-02T14:41:32.053Z,3.05
2023-04-02T14:44:05.571Z,3.46
2023-04-02T14:46:37.750Z,4.20
2023-04-02T14:49:20.979Z,3.40
2023-04-02T14:51:51.493Z,3.01
2023-04-02T14:54:25.309Z,2.59
2023-04-02T14:56:56.495Z,2.05
2023-04-02T14:59:31.860Z,2.52
2023-04-02T15:02:04.473Z,2.51
2023-04-02T15:04:38.067Z,2.28
2023-04-02T15:07:12.810Z,1.79
2023-04-02T15:09:48.114Z,1.61
2023-04-02T15:12:22.802Z,1.21
2023-04-02T15:14:56.763Z,1.03
2023-04-02T15:17:24.803Z,0.75
2023-04-02T15:20:05.257Z,0.75
2023-04-02T15:22:38.994Z,0.74
2023-04-02T15:25:17.040Z,0.88
2023-04-02T15:28:09.119Z,1.55
2023-04-02T15:30:40.502Z,2.22
2023-04-02T15:33:35.475Z,2.39
2023-04-02T15:36:23.889Z,2.11
2023-04-02T15:38:59.679Z,1.69
2023-04-02T15:41:35.782Z,1.75
2023-04-02T15:44:10.790Z,1.69
2023-04-02T15:46:51.496Z,1.74
2023-04-02T15:49:41.167Z,1.76
2023-04-02T15:52:13.509Z,1.64
2023-04-02T15:55:02.399Z,1.43
2023-04-02T15:58:06.782Z,1.61
2023-04-02T16:00:43.365Z,1.61
2023-04-02T16:03:42.060Z,1.61
2023-04-02T16:06:21.712Z,1.21
2023-04-02T16:09:00.580Z,1.26
2023-04-02T16:11:28.392Z,0.73
2023-04-02T16:14:14.278Z,0.74
2023-04-02T16:16:44.037Z,0.65
2023-04-02T16:19:26.669Z,0.42
2023-04-02T16:22:01.902Z,0.49
2023-04-02T16:24:34.027Z,0.43
2023-04-02T16:27:18.981Z,0.04
2023-04-02T16:30:01.004Z,0.13
2023-04-02T16:32:45.606Z,0.15
2023-04-02T16:38:03.465Z,-0.28
2023-04-02T16:40:38.192Z,-0.36
2023-04-02T16:43:20.508Z,-0.31
2023-04-02T16:46:38.144Z,-0.40
2023-04-02T16:49:15.851Z,-0.59
2023-04-02T16:51:57.027Z,-0.68
2023-04-02T16:54:31.685Z,-0.78
2023-04-02T16:57:14.901Z,-0.84
2023-04-02T16:59:50.044Z,-0.95
2023-04-02T17:02:34.814Z,-1.00
2023-04-02T17:05:13.586Z,-1.11
2023-04-02T17:07:47.679Z,-1.06
2023-04-02T17:10:31.941Z,-1.12
2023-04-02T17:13:20.739Z,-1.25
2023-04-02T17:15:52.414Z,-1.22
2023-04-02T17:18:24.813Z,-1.26
2023-04-02T17:20:53.771Z,-1.38
2023-04-02T17:23:27.524Z,-1.58
2023-04-02T17:25:59.384Z,-1.49
2023-04-02T17:28:39.075Z,-1.63
2023-04-02T17:31:13.118Z,-1.56
2023-04-02T17:33:44.632Z,-1.55
2023-04-02T17:36:28.127Z,-1.62
2023-04-02T17:39:08.039Z,-1.82
2023-04-02T17:41:41.336Z,-1.79
2023-04-02T17:44:33.650Z,-1.79
2023-04-02T17:47:11.620Z,-1.84
2023-04-02T17:49:47.372Z,-1.91
2023-04-02T17:52:20.907Z,-1.88
2023-04-02T17:55:04.272Z,-2.00
2023-04-02T17:57:42.841Z,-1.96
2023-04-02T18:00:20.467Z,-2.14
2023-04-02T18:03:06.108Z,-2.14
2023-04-02T18:05:41.625Z,-2.04
2023-04-02T18:08:22.634Z,-2.44
2023-04-02T18:11:02.987Z,-2.14
2023-04-02T18:13:35.773Z,-2.24
2023-04-02T18:16:14.744Z,-2.38
2023-04-02T18:18:54.397Z,-2.32
2023-04-02T18:21:32.644Z,-2.31
2023-04-02T18:24:16.450Z,-2.29
2023-04-02T18:26:59.699Z,-2.31
2023-04-02T18:29:38.583Z,-2.47
2023-04-02T18:32:27.583Z,-2.45
2023-04-02T18:35:06.922Z,-2.44
2023-04-02T18:37:39.928Z,-2.54
2023-04-02T18:40:27.006Z,-2.55
2023-04-02T18:43:05.550Z,-2.59
2023-04-02T18:45:42.669Z,-2.65
2023-04-02T18:48:23.372Z,-2.66
2023-04-02T18:50:55.490Z,-2.99
2023-04-02T18:53:27.737Z,-2.70
2023-04-02T18:55:59.211Z,-3.22
2023-04-02T18:58:35.139Z,-2.68
2023-04-02T19:01:06.622Z,-2.95
2023-04-02T19:03:41.999Z,-2.85
2023-04-02T19:06:14.835Z,-2.79
2023-04-02T19:08:48.492Z,-2.86
2023-04-02T19:11:18.969Z,-2.85
2023-04-02T19:13:48.982Z,-2.94
2023-04-02T19:16:32.458Z,-3.05
2023-04-02T19:19:12.329Z,-3.08
2023-04-02T19:22:18.687Z,-3.15
2023-04-02T19:25:22.621Z,-3.04
2023-04-02T19:28:06.521Z,-3.03
2023-04-02T19:30:46.546Z,-3.07
2023-04-02T19:33:30.046Z,-3.07
2023-04-02T19:36:00.449Z,-3.14
2023-04-02T19:38:41.061Z,-3.14
2023-04-02T19:41:14.298Z,-3.19
2023-04-02T19:43:46.215Z,-3.39
2023-04-02T19:46:15.586Z,-3.21
2023-04-02T19:52:10.279Z,-3.15
2023-04-02T19:54:38.531Z,-3.14
2023-04-02T19:57:06.785Z,-3.50
2023-04-02T19:59:36.532Z,-3.28
2023-04-02T20:02:09.983Z,-3.19
2023-04-02T20:04:41.135Z,-3.23
2023-04-02T20:07:08.954Z,-3.24
2023-04-02T20:09:36.652Z,-3.36
2023-04-02T20:12:06.601Z,-3.32
2023-04-02T20:14:36.578Z,-3.24
2023-04-02T20:17:05.725Z,-3.31
2023-04-02T20:19:35.366Z,-3.29
2023-04-02T20:22:05.322Z,-3.24
2023-04-02T20:24:33.145Z,-3.35
2023-04-02T20:27:02.680Z,-3.64
2023-04-02T20:29:32.930Z,-3.34
2023-04-02T20:32:00.648Z,-3.29
2023-04-02T20:34:29.882Z,-3.38
2023-04-02T20:36:59.985Z,-3.30
2023-04-02T20:39:28.777Z,-3.49
2023-04-02T20:42:02.709Z,-3.21
2023-04-02T20:44:32.720Z,-3.37
2023-04-02T20:47:02.629Z,-3.42
2023-04-02T20:49:32.011Z,-3.34
2023-04-02T20:51:59.766Z,-3.35
2023-04-02T20:54:29.794Z,-3.38
2023-04-02T20:56:59.414Z,-3.47
2023-04-02T20:59:27.131Z,-3.36
2023-04-02T21:01:54.976Z,-3.40
2023-04-02T21:04:22.985Z,-3.54
2023-04-02T21:06:56.862Z,-3.54
2023-04-02T21:09:26.817Z,-3.53
2023-04-02T21:11:54.524Z,-3.44
2023-04-02T21:14:22.250Z,-3.55
2023-04-02T21:16:54.108Z,-3.58
2023-04-02T21:19:21.797Z,-3.60
2023-04-02T21:21:49.527Z,-3.81
2023-04-02T21:24:22.477Z,-3.79
2023-04-02T21:26:51.550Z,-3.53
2023-04-02T21:29:19.314Z,-3.80
2023-04-02T21:31:52.571Z,-3.59
2023-04-02T21:34:22.799Z,-3.64
2023-04-02T21:36:55.295Z,-3.87
2023-04-02T21:39:27.365Z,-3.66
2023-04-02T21:41:55.388Z,-3.65
2023-04-02T21:44:26.734Z,-3.79
2023-04-02T21:46:56.851Z,-3.70
2023-04-02T21:49:29.283Z,-3.69
2023-04-02T21:51:56.952Z,-3.77
2023-04-02T21:54:26.170Z,-3.92
2023-04-02T21:56:58.119Z,-3.91
2023-04-02T21:59:25.989Z,-3.99
2023-04-02T22:01:54.238Z,-4.09
2023-04-02T22:04:30.475Z,-4.19
2023-04-02T22:06:58.383Z,-4.01
2023-04-02T22:09:29.637Z,-3.97
2023-04-02T22:12:01.608Z,-3.89
2023-04-02T22:14:31.931Z,-3.97
2023-04-02T22:16:59.773Z,-3.93
2023-04-02T22:19:29.868Z,-4.03
2023-04-02T22:21:59.835Z,-4.21
2023-04-02T22:24:29.152Z,-4.19
2023-04-02T22:26:58.760Z,-4.39
2023-04-02T22:29:28.747Z,-4.58
2023-04-02T22:31:56.483Z,-4.17
2023-04-02T22:34:32.702Z,-4.17
2023-04-02T22:37:02.905Z,-4.17
2023-04-02T22:39:32.022Z,-4.29
2023-04-02T22:42:01.582Z,-4.27
2023-04-02T22:44:31.480Z,-4.52
2023-04-02T22:46:59.377Z,-4.46
2023-04-02T22:49:29.207Z,-4.50
2023-04-02T22:51:57.079Z,-4.45
2023-04-02T22:54:24.776Z,-4.58
2023-04-02T22:56:55.720Z,-4.62
2023-04-02T22:59:25.887Z,-4.48
2023-04-02T23:01:53.847Z,-4.53
2023-04-02T23:04:23.657Z,-4.59
2023-04-02T23:06:53.478Z,-4.78
2023-04-02T23:09:21.461Z,-4.84
2023-04-02T23:11:51.369Z,-4.76
2023-04-02T23:14:22.670Z,-4.87
2023-04-02T23:16:50.436Z,-4.61
2023-04-02T23:19:20.291Z,-4.60
2023-04-02T23:21:50.118Z,-4.60
2023-04-02T23:24:17.988Z,-4.79
2023-04-02T23:26:47.568Z,-4.63
2023-04-02T23:29:17.504Z,-4.63
2023-04-02T23:31:47.026Z,-4.62
2023-04-02T23:34:16.768Z,-4.61
2023-04-02T23:36:46.686Z,-4.66
2023-04-02T23:39:15.288Z,-4.90
2023-04-02T23:41:45.704Z,-5.02
2023-04-02T23:44:15.545Z,-4.59
2023-04-02T23:46:43.288Z,-4.61
2023-04-02T23:49:14.894Z,-4.65
2023-04-02T23:51:44.759Z,-4.88
2023-04-02T23:54:15.363Z,-4.73
2023-04-02T23:56:45.610Z,-4.95
2023-04-02T23:59:15.586Z,-4.87
